sensor_id;sensor_type;location;lat;lon;timestamp;P1;durP1;ratioP1;P2;durP2;ratioP2
45684;SDS011;46836;48.388;16.210;2023-08-06T00:01:15;1.30;;;1.20;;
45684;SDS011;46836;48.388;16.210;2023-08-06T00:03:42;0.90;;;0.90;;
45684;SDS011;46836;48.388;16.210;2023-08-06T00:06:09;1.10;;;0.80;;
45684;SDS011;46836;48.388;16.210;2023-08-06T00:08:37;1.17;;;0.83;;
45684;SDS011;46836;48.388;16.210;2023-08-06T00:11:04;0.80;;;0.80;;
45684;SDS011;46836;48.388;16.210;2023-08-06T00:13:31;1.10;;;1.10;;
45684;SDS011;46836;48.388;16.210;2023-08-06T00:16:08;1.03;;;1.03;;
45684;SDS011;46836;48.388;16.210;2023-08-06T00:18:37;0.70;;;0.70;;
45684;SDS011;46836;48.388;16.210;2023-08-06T00:21:04;1.47;;;0.80;;
45684;SDS011;46836;48.388;16.210;2023-08-06T00:23:32;2.90;;;0.97;;
45684;SDS011;46836;48.388;16.210;2023-08-06T00:26:02;1.23;;;1.00;;
45684;SDS011;46836;48.388;16.210;2023-08-06T00:28:29;1.40;;;0.90;;
45684;SDS011;46836;48.388;16.210;2023-08-06T00:30:56;1.37;;;1.00;;
45684;SDS011;46836;48.388;16.210;2023-08-06T00:33:24;1.20;;;1.10;;
45684;SDS011;46836;48.388;16.210;2023-08-06T00:35:51;0.97;;;0.97;;
45684;SDS011;46836;48.388;16.210;2023-08-06T00:38:18;0.97;;;0.97;;
45684;SDS011;46836;48.388;16.210;2023-08-06T00:40:45;1.13;;;1.10;;
45684;SDS011;46836;48.388;16.210;2023-08-06T00:43:12;1.67;;;1.17;;
45684;SDS011;46836;48.388;16.210;2023-08-06T00:45:39;1.20;;;1.10;;
45684;SDS011;46836;48.388;16.210;2023-08-06T00:48:07;0.97;;;0.93;;
45684;SDS011;46836;48.388;16.210;2023-08-06T00:50:34;1.03;;;1.03;;
45684;SDS011;46836;48.388;16.210;2023-08-06T00:53:01;2.10;;;0.90;;
45684;SDS011;46836;48.388;16.210;2023-08-06T00:55:28;1.00;;;0.90;;
45684;SDS011;46836;48.388;16.210;2023-08-06T00:57:56;1.57;;;0.80;;
45684;SDS011;46836;48.388;16.210;2023-08-06T01:00:25;0.80;;;0.80;;
45684;SDS011;46836;48.388;16.210;2023-08-06T01:02:53;1.00;;;1.00;;
45684;SDS011;46836;48.388;16.210;2023-08-06T01:05:20;0.90;;;0.90;;
45684;SDS011;46836;48.388;16.210;2023-08-06T01:15:32;0.70;;;0.70;;
45684;SDS011;46836;48.388;16.210;2023-08-06T01:18:06;0.77;;;0.77;;
45684;SDS011;46836;48.388;16.210;2023-08-06T01:20:34;0.83;;;0.83;;
45684;SDS011;46836;48.388;16.210;2023-08-06T01:23:01;3.40;;;1.17;;
45684;SDS011;46836;48.388;16.210;2023-08-06T01:25:30;1.53;;;1.07;;
45684;SDS011;46836;48.388;16.210;2023-08-06T01:28:08;1.20;;;1.10;;
45684;SDS011;46836;48.388;16.210;2023-08-06T01:30:41;0.77;;;0.77;;
45684;SDS011;46836;48.388;16.210;2023-08-06T01:33:10;1.93;;;1.00;;
45684;SDS011;46836;48.388;16.210;2023-08-06T01:35:45;1.00;;;1.00;;
45684;SDS011;46836;48.388;16.210;2023-08-06T01:38:14;0.80;;;0.80;;
45684;SDS011;46836;48.388;16.210;2023-08-06T01:40:41;0.80;;;0.80;;
45684;SDS011;46836;48.388;16.210;2023-08-06T01:43:08;0.93;;;0.93;;
45684;SDS011;46836;48.388;16.210;2023-08-06T01:45:36;2.33;;;1.00;;
45684;SDS011;46836;48.388;16.210;2023-08-06T01:48:04;1.70;;;0.90;;
45684;SDS011;46836;48.388;16.210;2023-08-06T01:50:31;0.70;;;0.70;;
45684;SDS011;46836;48.388;16.210;2023-08-06T01:52:58;2.07;;;0.90;;
45684;SDS011;46836;48.388;16.210;2023-08-06T01:55:25;1.20;;;1.10;;
45684;SDS011;46836;48.388;16.210;2023-08-06T01:57:52;0.90;;;0.73;;
45684;SDS011;46836;48.388;16.210;2023-08-06T02:00:19;0.90;;;0.90;;
45684;SDS011;46836;48.388;16.210;2023-08-06T02:02:46;1.17;;;0.70;;
45684;SDS011;46836;48.388;16.210;2023-08-06T02:05:13;0.97;;;0.87;;
45684;SDS011;46836;48.388;16.210;2023-08-06T02:07:40;1.20;;;1.07;;
45684;SDS011;46836;48.388;16.210;2023-08-06T02:10:07;1.30;;;1.20;;
45684;SDS011;46836;48.388;16.210;2023-08-06T02:12:34;1.20;;;1.10;;
45684;SDS011;46836;48.388;16.210;2023-08-06T02:15:02;1.70;;;0.80;;
45684;SDS011;46836;48.388;16.210;2023-08-06T02:17:30;1.40;;;1.15;;
45684;SDS011;46836;48.388;16.210;2023-08-06T02:19:57;2.07;;;0.83;;
45684;SDS011;46836;48.388;16.210;2023-08-06T02:22:24;2.90;;;1.20;;
45684;SDS011;46836;48.388;16.210;2023-08-06T02:24:51;3.10;;;1.00;;
45684;SDS011;46836;48.388;16.210;2023-08-06T02:27:18;1.20;;;1.10;;
45684;SDS011;46836;48.388;16.210;2023-08-06T02:29:45;2.80;;;1.07;;
45684;SDS011;46836;48.388;16.210;2023-08-06T02:32:12;1.47;;;1.00;;
45684;SDS011;46836;48.388;16.210;2023-08-06T02:34:39;1.67;;;0.90;;
45684;SDS011;46836;48.388;16.210;2023-08-06T02:37:06;2.90;;;1.20;;
45684;SDS011;46836;48.388;16.210;2023-08-06T02:39:33;1.00;;;0.90;;
45684;SDS011;46836;48.388;16.210;2023-08-06T02:42:02;1.00;;;1.00;;
45684;SDS011;46836;48.388;16.210;2023-08-06T02:44:29;1.03;;;0.93;;
45684;SDS011;46836;48.388;16.210;2023-08-06T02:46:56;3.63;;;1.25;;
45684;SDS011;46836;48.388;16.210;2023-08-06T02:49:23;1.30;;;1.20;;
45684;SDS011;46836;48.388;16.210;2023-08-06T02:51:50;3.47;;;1.20;;
45684;SDS011;46836;48.388;16.210;2023-08-06T02:54:19;2.03;;;0.90;;
45684;SDS011;46836;48.388;16.210;2023-08-06T02:56:46;1.20;;;1.10;;
45684;SDS011;46836;48.388;16.210;2023-08-06T02:59:13;1.40;;;1.30;;
45684;SDS011;46836;48.388;16.210;2023-08-06T03:01:40;1.20;;;1.10;;
45684;SDS011;46836;48.388;16.210;2023-08-06T03:04:07;2.17;;;1.10;;
45684;SDS011;46836;48.388;16.210;2023-08-06T03:06:34;1.20;;;1.10;;
45684;SDS011;46836;48.388;16.210;2023-08-06T03:09:01;1.27;;;1.07;;
45684;SDS011;46836;48.388;16.210;2023-08-06T03:11:28;1.92;;;1.20;;
45684;SDS011;46836;48.388;16.210;2023-08-06T03:13:55;1.50;;;1.40;;
45684;SDS011;46836;48.388;16.210;2023-08-06T03:16:24;0.90;;;0.90;;
45684;SDS011;46836;48.388;16.210;2023-08-06T03:18:51;1.30;;;1.20;;
45684;SDS011;46836;48.388;16.210;2023-08-06T03:21:18;1.10;;;1.00;;
45684;SDS011;46836;48.388;16.210;2023-08-06T03:23:46;0.90;;;0.90;;
45684;SDS011;46836;48.388;16.210;2023-08-06T03:26:15;2.08;;;1.13;;
45684;SDS011;46836;48.388;16.210;2023-08-06T03:28:42;1.63;;;1.15;;
45684;SDS011;46836;48.388;16.210;2023-08-06T03:31:09;1.40;;;1.10;;
45684;SDS011;46836;48.388;16.210;2023-08-06T03:33:36;1.37;;;1.27;;
45684;SDS011;46836;48.388;16.210;2023-08-06T03:36:03;1.33;;;1.23;;
45684;SDS011;46836;48.388;16.210;2023-08-06T03:38:30;0.93;;;0.93;;
45684;SDS011;46836;48.388;16.210;2023-08-06T03:40:57;4.10;;;1.03;;
45684;SDS011;46836;48.388;16.210;2023-08-06T03:43:25;1.73;;;1.30;;
45684;SDS011;46836;48.388;16.210;2023-08-06T03:45:52;1.33;;;1.23;;
45684;SDS011;46836;48.388;16.210;2023-08-06T03:48:19;1.67;;;1.55;;
45684;SDS011;46836;48.388;16.210;2023-08-06T03:50:46;1.20;;;1.13;;
45684;SDS011;46836;48.388;16.210;2023-08-06T03:53:13;1.23;;;1.13;;
45684;SDS011;46836;48.388;16.210;2023-08-06T03:55:40;1.87;;;1.30;;
45684;SDS011;46836;48.388;16.210;2023-08-06T03:58:07;1.27;;;1.10;;
45684;SDS011;46836;48.388;16.210;2023-08-06T04:00:34;2.33;;;1.60;;
45684;SDS011;46836;48.388;16.210;2023-08-06T04:03:01;1.40;;;1.30;;
45684;SDS011;46836;48.388;16.210;2023-08-06T04:05:31;1.50;;;1.40;;
45684;SDS011;46836;48.388;16.210;2023-08-06T04:07:59;1.60;;;1.50;;
45684;SDS011;46836;48.388;16.210;2023-08-06T04:10:26;1.73;;;1.50;;
45684;SDS011;46836;48.388;16.210;2023-08-06T04:12:53;1.57;;;1.47;;
45684;SDS011;46836;48.388;16.210;2023-08-06T04:15:20;2.13;;;1.50;;
45684;SDS011;46836;48.388;16.210;2023-08-06T04:17:47;1.93;;;1.83;;
45684;SDS011;46836;48.388;16.210;2023-08-06T04:20:14;1.80;;;1.70;;
45684;SDS011;46836;48.388;16.210;2023-08-06T04:22:42;1.63;;;1.53;;
45684;SDS011;46836;48.388;16.210;2023-08-06T04:25:09;1.63;;;1.53;;
45684;SDS011;46836;48.388;16.210;2023-08-06T04:27:36;2.20;;;1.67;;
45684;SDS011;46836;48.388;16.210;2023-08-06T04:30:07;2.10;;;1.97;;
45684;SDS011;46836;48.388;16.210;2023-08-06T04:32:35;1.50;;;1.40;;
45684;SDS011;46836;48.388;16.210;2023-08-06T04:35:02;1.90;;;1.80;;
45684;SDS011;46836;48.388;16.210;2023-08-06T04:37:30;2.30;;;1.93;;
45684;SDS011;46836;48.388;16.210;2023-08-06T04:39:57;3.25;;;1.92;;
45684;SDS011;46836;48.388;16.210;2023-08-06T04:42:24;1.80;;;1.70;;
45684;SDS011;46836;48.388;16.210;2023-08-06T04:44:51;3.57;;;1.80;;
45684;SDS011;46836;48.388;16.210;2023-08-06T04:47:18;2.10;;;2.00;;
45684;SDS011;46836;48.388;16.210;2023-08-06T04:49:45;1.87;;;1.77;;
45684;SDS011;46836;48.388;16.210;2023-08-06T04:52:13;1.90;;;1.80;;
45684;SDS011;46836;48.388;16.210;2023-08-06T04:54:40;1.70;;;1.60;;
45684;SDS011;46836;48.388;16.210;2023-08-06T04:57:07;1.97;;;1.80;;
45684;SDS011;46836;48.388;16.210;2023-08-06T04:59:34;1.80;;;1.70;;
45684;SDS011;46836;48.388;16.210;2023-08-06T05:02:01;6.00;;;1.83;;
45684;SDS011;46836;48.388;16.210;2023-08-06T05:04:28;1.53;;;1.43;;
45684;SDS011;46836;48.388;16.210;2023-08-06T05:06:55;2.47;;;1.70;;
45684;SDS011;46836;48.388;16.210;2023-08-06T05:09:22;2.50;;;1.67;;
45684;SDS011;46836;48.388;16.210;2023-08-06T05:11:49;1.77;;;1.60;;
45684;SDS011;46836;48.388;16.210;2023-08-06T05:14:17;1.70;;;1.60;;
45684;SDS011;46836;48.388;16.210;2023-08-06T05:16:44;1.70;;;1.60;;
45684;SDS011;46836;48.388;16.210;2023-08-06T05:19:11;1.70;;;1.60;;
45684;SDS011;46836;48.388;16.210;2023-08-06T05:21:38;4.60;;;1.80;;
45684;SDS011;46836;48.388;16.210;2023-08-06T05:24:05;2.13;;;1.60;;
45684;SDS011;46836;48.388;16.210;2023-08-06T05:26:32;1.43;;;1.33;;
45684;SDS011;46836;48.388;16.210;2023-08-06T05:29:00;1.60;;;1.50;;
45684;SDS011;46836;48.388;16.210;2023-08-06T05:31:27;1.33;;;1.23;;
45684;SDS011;46836;48.388;16.210;2023-08-06T05:33:55;3.40;;;1.83;;
45684;SDS011;46836;48.388;16.210;2023-08-06T05:36:22;1.73;;;1.63;;
45684;SDS011;46836;48.388;16.210;2023-08-06T05:38:49;1.50;;;1.40;;
45684;SDS011;46836;48.388;16.210;2023-08-06T05:41:16;1.90;;;1.80;;
45684;SDS011;46836;48.388;16.210;2023-08-06T05:43:43;1.43;;;1.33;;
45684;SDS011;46836;48.388;16.210;2023-08-06T05:46:11;1.53;;;1.30;;
45684;SDS011;46836;48.388;16.210;2023-08-06T05:48:38;1.60;;;1.50;;
45684;SDS011;46836;48.388;16.210;2023-08-06T05:51:05;1.50;;;1.40;;
45684;SDS011;46836;48.388;16.210;2023-08-06T05:53:32;1.70;;;1.60;;
45684;SDS011;46836;48.388;16.210;2023-08-06T05:56:00;1.50;;;1.40;;
45684;SDS011;46836;48.388;16.210;2023-08-06T05:58:26;1.67;;;1.57;;
45684;SDS011;46836;48.388;16.210;2023-08-06T06:00:55;2.93;;;1.53;;
45684;SDS011;46836;48.388;16.210;2023-08-06T06:03:23;1.50;;;1.40;;
45684;SDS011;46836;48.388;16.210;2023-08-06T06:05:50;1.83;;;1.73;;
45684;SDS011;46836;48.388;16.210;2023-08-06T06:08:17;1.60;;;1.50;;
45684;SDS011;46836;48.388;16.210;2023-08-06T06:10:44;1.43;;;1.33;;
45684;SDS011;46836;48.388;16.210;2023-08-06T06:13:11;2.00;;;1.90;;
45684;SDS011;46836;48.388;16.210;2023-08-06T06:15:38;3.03;;;1.50;;
45684;SDS011;46836;48.388;16.210;2023-08-06T06:18:05;1.87;;;1.67;;
45684;SDS011;46836;48.388;16.210;2023-08-06T06:20:32;1.90;;;1.53;;
45684;SDS011;46836;48.388;16.210;2023-08-06T06:23:00;1.70;;;1.60;;
45684;SDS011;46836;48.388;16.210;2023-08-06T06:25:27;1.90;;;1.80;;
45684;SDS011;46836;48.388;16.210;2023-08-06T06:27:54;1.63;;;1.53;;
45684;SDS011;46836;48.388;16.210;2023-08-06T06:30:21;1.37;;;1.27;;
45684;SDS011;46836;48.388;16.210;2023-08-06T06:32:48;1.90;;;1.80;;
45684;SDS011;46836;48.388;16.210;2023-08-06T06:35:15;1.70;;;1.60;;
45684;SDS011;46836;48.388;16.210;2023-08-06T06:37:42;1.50;;;1.40;;
45684;SDS011;46836;48.388;16.210;2023-08-06T06:40:09;1.70;;;1.60;;
45684;SDS011;46836;48.388;16.210;2023-08-06T06:42:37;2.50;;;1.37;;
45684;SDS011;46836;48.388;16.210;2023-08-06T06:45:04;1.60;;;1.50;;
45684;SDS011;46836;48.388;16.210;2023-08-06T06:47:31;1.60;;;1.50;;
45684;SDS011;46836;48.388;16.210;2023-08-06T06:49:58;1.50;;;1.40;;
45684;SDS011;46836;48.388;16.210;2023-08-06T06:52:26;1.70;;;1.60;;
45684;SDS011;46836;48.388;16.210;2023-08-06T06:54:53;1.93;;;1.50;;
45684;SDS011;46836;48.388;16.210;2023-08-06T06:57:20;2.27;;;1.40;;
45684;SDS011;46836;48.388;16.210;2023-08-06T06:59:47;1.57;;;1.47;;
45684;SDS011;46836;48.388;16.210;2023-08-06T07:02:14;1.50;;;1.40;;
45684;SDS011;46836;48.388;16.210;2023-08-06T07:04:41;1.80;;;1.70;;
45684;SDS011;46836;48.388;16.210;2023-08-06T07:07:08;2.07;;;1.40;;
45684;SDS011;46836;48.388;16.210;2023-08-06T07:09:35;1.60;;;1.50;;
45684;SDS011;46836;48.388;16.210;2023-08-06T07:12:03;3.30;;;1.20;;
45684;SDS011;46836;48.388;16.210;2023-08-06T07:14:30;1.50;;;1.40;;
45684;SDS011;46836;48.388;16.210;2023-08-06T07:16:57;1.13;;;1.03;;
45684;SDS011;46836;48.388;16.210;2023-08-06T07:19:24;1.50;;;1.40;;
45684;SDS011;46836;48.388;16.210;2023-08-06T07:21:51;1.87;;;1.40;;
45684;SDS011;46836;48.388;16.210;2023-08-06T07:24:19;1.30;;;1.20;;
45684;SDS011;46836;48.388;16.210;2023-08-06T07:26:46;3.10;;;1.40;;
45684;SDS011;46836;48.388;16.210;2023-08-06T07:29:13;1.50;;;1.40;;
45684;SDS011;46836;48.388;16.210;2023-08-06T07:31:46;1.70;;;1.60;;
45684;SDS011;46836;48.388;16.210;2023-08-06T07:34:13;1.43;;;1.33;;
45684;SDS011;46836;48.388;16.210;2023-08-06T07:36:40;1.60;;;1.40;;
45684;SDS011;46836;48.388;16.210;2023-08-06T07:39:09;1.67;;;1.57;;
45684;SDS011;46836;48.388;16.210;2023-08-06T07:41:36;1.50;;;1.40;;
45684;SDS011;46836;48.388;16.210;2023-08-06T07:44:04;1.40;;;1.30;;
45684;SDS011;46836;48.388;16.210;2023-08-06T07:46:31;1.13;;;1.03;;
45684;SDS011;46836;48.388;16.210;2023-08-06T07:48:58;1.83;;;1.50;;
45684;SDS011;46836;48.388;16.210;2023-08-06T07:51:25;1.10;;;1.00;;
45684;SDS011;46836;48.388;16.210;2023-08-06T07:53:52;1.40;;;1.30;;
45684;SDS011;46836;48.388;16.210;2023-08-06T07:56:20;1.00;;;1.00;;
45684;SDS011;46836;48.388;16.210;2023-08-06T07:58:48;2.40;;;1.00;;
45684;SDS011;46836;48.388;16.210;2023-08-06T08:01:15;1.23;;;1.10;;
45684;SDS011;46836;48.388;16.210;2023-08-06T08:03:42;1.27;;;1.17;;
45684;SDS011;46836;48.388;16.210;2023-08-06T08:06:09;1.83;;;1.30;;
45684;SDS011;46836;48.388;16.210;2023-08-06T08:08:36;2.60;;;0.87;;
45684;SDS011;46836;48.388;16.210;2023-08-06T08:11:05;1.63;;;1.40;;
45684;SDS011;46836;48.388;16.210;2023-08-06T08:13:33;3.10;;;1.67;;
45684;SDS011;46836;48.388;16.210;2023-08-06T08:16:00;1.77;;;1.67;;
45684;SDS011;46836;48.388;16.210;2023-08-06T08:18:28;1.43;;;1.33;;
45684;SDS011;46836;48.388;16.210;2023-08-06T08:20:57;2.83;;;1.50;;
45684;SDS011;46836;48.388;16.210;2023-08-06T08:23:24;1.70;;;1.60;;
45684;SDS011;46836;48.388;16.210;2023-08-06T08:25:52;1.77;;;1.67;;
45684;SDS011;46836;48.388;16.210;2023-08-06T08:28:19;1.70;;;1.60;;
45684;SDS011;46836;48.388;16.210;2023-08-06T08:30:46;1.63;;;1.53;;
45684;SDS011;46836;48.388;16.210;2023-08-06T08:33:13;2.20;;;1.80;;
45684;SDS011;46836;48.388;16.210;2023-08-06T08:35:40;2.03;;;1.77;;
45684;SDS011;46836;48.388;16.210;2023-08-06T08:38:07;2.63;;;1.70;;
45684;SDS011;46836;48.388;16.210;2023-08-06T08:40:34;3.20;;;1.80;;
45684;SDS011;46836;48.388;16.210;2023-08-06T08:43:07;1.20;;;1.10;;
45684;SDS011;46836;48.388;16.210;2023-08-06T08:45:35;1.53;;;1.43;;
45684;SDS011;46836;48.388;16.210;2023-08-06T08:48:06;2.03;;;1.93;;
45684;SDS011;46836;48.388;16.210;2023-08-06T08:50:34;2.47;;;1.60;;
45684;SDS011;46836;48.388;16.210;2023-08-06T08:53:02;1.90;;;1.70;;
45684;SDS011;46836;48.388;16.210;2023-08-06T08:55:29;1.70;;;1.60;;
45684;SDS011;46836;48.388;16.210;2023-08-06T08:57:56;2.70;;;1.53;;
45684;SDS011;46836;48.388;16.210;2023-08-06T09:00:23;2.13;;;1.40;;
45684;SDS011;46836;48.388;16.210;2023-08-06T09:02:51;1.47;;;1.37;;
45684;SDS011;46836;48.388;16.210;2023-08-06T09:05:20;1.43;;;1.33;;
45684;SDS011;46836;48.388;16.210;2023-08-06T09:07:50;1.40;;;1.30;;
45684;SDS011;46836;48.388;16.210;2023-08-06T09:10:21;1.67;;;1.57;;
45684;SDS011;46836;48.388;16.210;2023-08-06T09:12:51;1.47;;;1.37;;
45684;SDS011;46836;48.388;16.210;2023-08-06T09:15:20;1.63;;;1.53;;
45684;SDS011;46836;48.388;16.210;2023-08-06T09:17:51;2.17;;;1.53;;
45684;SDS011;46836;48.388;16.210;2023-08-06T09:20:19;2.00;;;1.50;;
45684;SDS011;46836;48.388;16.210;2023-08-06T09:22:47;1.60;;;1.50;;
45684;SDS011;46836;48.388;16.210;2023-08-06T09:25:24;2.20;;;1.73;;
45684;SDS011;46836;48.388;16.210;2023-08-06T09:27:52;1.77;;;1.47;;
45684;SDS011;46836;48.388;16.210;2023-08-06T09:30:33;1.87;;;1.77;;
45684;SDS011;46836;48.388;16.210;2023-08-06T09:33:02;1.73;;;1.60;;
45684;SDS011;46836;48.388;16.210;2023-08-06T09:35:30;1.70;;;1.60;;
45684;SDS011;46836;48.388;16.210;2023-08-06T09:38:08;1.67;;;1.57;;
45684;SDS011;46836;48.388;16.210;2023-08-06T09:40:37;2.07;;;1.87;;
45684;SDS011;46836;48.388;16.210;2023-08-06T09:43:05;1.77;;;1.67;;
45684;SDS011;46836;48.388;16.210;2023-08-06T09:45:36;1.53;;;1.43;;
45684;SDS011;46836;48.388;16.210;2023-08-06T09:48:05;2.20;;;1.50;;
45684;SDS011;46836;48.388;16.210;2023-08-06T09:50:34;1.47;;;1.37;;
45684;SDS011;46836;48.388;16.210;2023-08-06T09:53:04;1.70;;;1.60;;
45684;SDS011;46836;48.388;16.210;2023-08-06T09:55:32;1.70;;;1.60;;
45684;SDS011;46836;48.388;16.210;2023-08-06T09:58:00;1.57;;;1.47;;
45684;SDS011;46836;48.388;16.210;2023-08-06T10:00:27;2.03;;;1.80;;
45684;SDS011;46836;48.388;16.210;2023-08-06T10:02:59;1.80;;;1.70;;
45684;SDS011;46836;48.388;16.210;2023-08-06T10:05:27;1.40;;;1.30;;
45684;SDS011;46836;48.388;16.210;2023-08-06T10:07:54;1.83;;;1.70;;
45684;SDS011;46836;48.388;16.210;2023-08-06T10:10:23;1.80;;;1.70;;
45684;SDS011;46836;48.388;16.210;2023-08-06T10:12:52;1.83;;;1.73;;
45684;SDS011;46836;48.388;16.210;2023-08-06T10:15:26;1.60;;;1.50;;
45684;SDS011;46836;48.388;16.210;2023-08-06T10:17:56;3.93;;;2.27;;
45684;SDS011;46836;48.388;16.210;2023-08-06T10:20:26;1.70;;;1.60;;
45684;SDS011;46836;48.388;16.210;2023-08-06T10:23:00;2.50;;;1.87;;
45684;SDS011;46836;48.388;16.210;2023-08-06T10:25:31;1.70;;;1.60;;
45684;SDS011;46836;48.388;16.210;2023-08-06T10:28:00;1.70;;;1.60;;
45684;SDS011;46836;48.388;16.210;2023-08-06T10:30:45;2.60;;;2.17;;
45684;SDS011;46836;48.388;16.210;2023-08-06T10:33:14;2.00;;;1.90;;
45684;SDS011;46836;48.388;16.210;2023-08-06T10:35:46;1.97;;;1.87;;
45684;SDS011;46836;48.388;16.210;2023-08-06T10:38:17;1.90;;;1.80;;
45684;SDS011;46836;48.388;16.210;2023-08-06T10:43:25;2.20;;;2.00;;
45684;SDS011;46836;48.388;16.210;2023-08-06T10:45:58;2.27;;;2.07;;
45684;SDS011;46836;48.388;16.210;2023-08-06T10:48:31;1.83;;;1.70;;
45684;SDS011;46836;48.388;16.210;2023-08-06T10:51:07;2.13;;;2.03;;
45684;SDS011;46836;48.388;16.210;2023-08-06T10:53:36;2.07;;;1.77;;
45684;SDS011;46836;48.388;16.210;2023-08-06T10:56:17;4.10;;;2.00;;
45684;SDS011;46836;48.388;16.210;2023-08-06T10:58:46;2.53;;;2.00;;
45684;SDS011;46836;48.388;16.210;2023-08-06T11:01:14;1.70;;;1.60;;
45684;SDS011;46836;48.388;16.210;2023-08-06T11:03:42;5.30;;;2.23;;
45684;SDS011;46836;48.388;16.210;2023-08-06T11:06:16;2.30;;;2.10;;
45684;SDS011;46836;48.388;16.210;2023-08-06T11:08:49;2.60;;;1.80;;
45684;SDS011;46836;48.388;16.210;2023-08-06T11:11:19;2.00;;;1.77;;
45684;SDS011;46836;48.388;16.210;2023-08-06T11:13:49;1.73;;;1.63;;
45684;SDS011;46836;48.388;16.210;2023-08-06T11:16:19;2.13;;;1.60;;
45684;SDS011;46836;48.388;16.210;2023-08-06T11:18:51;1.80;;;1.70;;
45684;SDS011;46836;48.388;16.210;2023-08-06T11:21:21;2.10;;;2.00;;
45684;SDS011;46836;48.388;16.210;2023-08-06T11:23:49;1.70;;;1.60;;
45684;SDS011;46836;48.388;16.210;2023-08-06T11:26:20;3.07;;;2.10;;
45684;SDS011;46836;48.388;16.210;2023-08-06T11:28:50;2.37;;;1.83;;
45684;SDS011;46836;48.388;16.210;2023-08-06T11:31:24;2.30;;;1.87;;
45684;SDS011;46836;48.388;16.210;2023-08-06T11:33:51;1.80;;;1.70;;
45684;SDS011;46836;48.388;16.210;2023-08-06T11:36:29;4.03;;;1.90;;
45684;SDS011;46836;48.388;16.210;2023-08-06T11:38:58;2.43;;;1.60;;
45684;SDS011;46836;48.388;16.210;2023-08-06T11:41:33;1.77;;;1.67;;
45684;SDS011;46836;48.388;16.210;2023-08-06T11:44:00;1.87;;;1.60;;
45684;SDS011;46836;48.388;16.210;2023-08-06T11:46:27;3.43;;;1.50;;
45684;SDS011;46836;48.388;16.210;2023-08-06T11:48:55;2.27;;;1.70;;
45684;SDS011;46836;48.388;16.210;2023-08-06T11:51:27;3.07;;;1.70;;
45684;SDS011;46836;48.388;16.210;2023-08-06T11:53:55;1.80;;;1.27;;
45684;SDS011;46836;48.388;16.210;2023-08-06T11:56:24;1.57;;;1.47;;
45684;SDS011;46836;48.388;16.210;2023-08-06T11:58:52;1.30;;;1.20;;
45684;SDS011;46836;48.388;16.210;2023-08-06T12:01:20;1.53;;;1.40;;
45684;SDS011;46836;48.388;16.210;2023-08-06T12:03:48;1.60;;;1.10;;
45684;SDS011;46836;48.388;16.210;2023-08-06T12:06:15;1.30;;;1.20;;
45684;SDS011;46836;48.388;16.210;2023-08-06T12:08:42;1.60;;;1.30;;
45684;SDS011;46836;48.388;16.210;2023-08-06T12:11:09;2.73;;;1.77;;
45684;SDS011;46836;48.388;16.210;2023-08-06T12:13:36;2.87;;;2.17;;
45684;SDS011;46836;48.388;16.210;2023-08-06T12:16:04;2.07;;;1.90;;
45684;SDS011;46836;48.388;16.210;2023-08-06T12:18:31;2.60;;;2.40;;
45684;SDS011;46836;48.388;16.210;2023-08-06T12:20:58;2.77;;;2.57;;
45684;SDS011;46836;48.388;16.210;2023-08-06T12:23:25;2.30;;;2.10;;
45684;SDS011;46836;48.388;16.210;2023-08-06T12:25:52;3.47;;;1.90;;
45684;SDS011;46836;48.388;16.210;2023-08-06T12:28:19;3.10;;;2.17;;
45684;SDS011;46836;48.388;16.210;2023-08-06T12:30:49;1.77;;;1.50;;
45684;SDS011;46836;48.388;16.210;2023-08-06T12:33:17;1.70;;;1.60;;
45684;SDS011;46836;48.388;16.210;2023-08-06T12:35:45;1.90;;;1.80;;
45684;SDS011;46836;48.388;16.210;2023-08-06T12:38:12;3.47;;;2.00;;
45684;SDS011;46836;48.388;16.210;2023-08-06T12:40:40;2.00;;;1.80;;
45684;SDS011;46836;48.388;16.210;2023-08-06T12:43:09;2.23;;;2.03;;
45684;SDS011;46836;48.388;16.210;2023-08-06T12:45:36;1.87;;;1.77;;
45684;SDS011;46836;48.388;16.210;2023-08-06T12:48:04;2.10;;;2.00;;
45684;SDS011;46836;48.388;16.210;2023-08-06T12:50:31;2.23;;;2.03;;
45684;SDS011;46836;48.388;16.210;2023-08-06T12:53:01;3.50;;;1.90;;
45684;SDS011;46836;48.388;16.210;2023-08-06T12:55:28;2.50;;;2.30;;
45684;SDS011;46836;48.388;16.210;2023-08-06T12:57:59;2.80;;;2.23;;
45684;SDS011;46836;48.388;16.210;2023-08-06T13:00:27;4.40;;;2.13;;
45684;SDS011;46836;48.388;16.210;2023-08-06T13:02:55;2.43;;;2.13;;
45684;SDS011;46836;48.388;16.210;2023-08-06T13:05:23;2.67;;;2.47;;
45684;SDS011;46836;48.388;16.210;2023-08-06T13:07:50;3.10;;;2.37;;
45684;SDS011;46836;48.388;16.210;2023-08-06T13:10:18;2.27;;;2.07;;
45684;SDS011;46836;48.388;16.210;2023-08-06T13:12:46;2.80;;;2.60;;
45684;SDS011;46836;48.388;16.210;2023-08-06T13:15:13;2.60;;;2.40;;
45684;SDS011;46836;48.388;16.210;2023-08-06T13:17:43;3.47;;;2.47;;
45684;SDS011;46836;48.388;16.210;2023-08-06T13:20:11;3.60;;;2.90;;
45684;SDS011;46836;48.388;16.210;2023-08-06T13:22:38;2.57;;;2.30;;
45684;SDS011;46836;48.388;16.210;2023-08-06T13:25:05;2.93;;;2.73;;
45684;SDS011;46836;48.388;16.210;2023-08-06T13:27:33;2.57;;;2.37;;
45684;SDS011;46836;48.388;16.210;2023-08-06T13:30:01;5.10;;;2.87;;
45684;SDS011;46836;48.388;16.210;2023-08-06T13:32:29;4.23;;;2.73;;
45684;SDS011;46836;48.388;16.210;2023-08-06T13:34:59;4.00;;;2.60;;
45684;SDS011;46836;48.388;16.210;2023-08-06T13:37:26;2.77;;;2.53;;
45684;SDS011;46836;48.388;16.210;2023-08-06T13:39:54;3.50;;;2.87;;
45684;SDS011;46836;48.388;16.210;2023-08-06T13:42:22;3.10;;;2.90;;
45684;SDS011;46836;48.388;16.210;2023-08-06T13:44:49;3.20;;;2.87;;
45684;SDS011;46836;48.388;16.210;2023-08-06T13:47:16;3.37;;;2.90;;
45684;SDS011;46836;48.388;16.210;2023-08-06T13:49:44;3.00;;;2.80;;
45684;SDS011;46836;48.388;16.210;2023-08-06T13:52:28;2.60;;;2.40;;
45684;SDS011;46836;48.388;16.210;2023-08-06T13:54:55;2.90;;;2.27;;
45684;SDS011;46836;48.388;16.210;2023-08-06T13:57:23;9.27;;;2.07;;
45684;SDS011;46836;48.388;16.210;2023-08-06T13:59:50;2.70;;;2.50;;
45684;SDS011;46836;48.388;16.210;2023-08-06T14:02:18;2.50;;;2.17;;
45684;SDS011;46836;48.388;16.210;2023-08-06T14:04:46;2.23;;;2.03;;
45684;SDS011;46836;48.388;16.210;2023-08-06T14:07:13;2.07;;;1.97;;
45684;SDS011;46836;48.388;16.210;2023-08-06T14:09:41;2.20;;;2.00;;
45684;SDS011;46836;48.388;16.210;2023-08-06T14:12:10;3.40;;;2.23;;
45684;SDS011;46836;48.388;16.210;2023-08-06T14:14:38;2.87;;;2.67;;
45684;SDS011;46836;48.388;16.210;2023-08-06T14:17:06;3.30;;;3.00;;
45684;SDS011;46836;48.388;16.210;2023-08-06T14:19:33;3.00;;;2.80;;
45684;SDS011;46836;48.388;16.210;2023-08-06T14:22:00;2.77;;;2.57;;
45684;SDS011;46836;48.388;16.210;2023-08-06T14:24:28;3.07;;;2.87;;
45684;SDS011;46836;48.388;16.210;2023-08-06T14:26:56;3.30;;;2.90;;
45684;SDS011;46836;48.388;16.210;2023-08-06T14:29:23;3.50;;;3.20;;
45684;SDS011;46836;48.388;16.210;2023-08-06T14:31:51;4.30;;;3.13;;
45684;SDS011;46836;48.388;16.210;2023-08-06T14:34:18;2.67;;;2.47;;
45684;SDS011;46836;48.388;16.210;2023-08-06T14:36:46;3.43;;;3.07;;
45684;SDS011;46836;48.388;16.210;2023-08-06T14:39:14;3.07;;;2.87;;
45684;SDS011;46836;48.388;16.210;2023-08-06T14:41:41;3.47;;;3.17;;
45684;SDS011;46836;48.388;16.210;2023-08-06T14:44:09;2.43;;;2.23;;
45684;SDS011;46836;48.388;16.210;2023-08-06T14:46:38;2.27;;;2.07;;
45684;SDS011;46836;48.388;16.210;2023-08-06T14:49:05;1.50;;;1.40;;